sensor_id;sensor_type;location;lat;lon;timestamp;P1;durP1;ratioP1;P2;durP2;ratioP2
29026;SDS011;16120;48.608;9.092;2024-01-25T00:00:56;110.77;;;8.40;;
29026;SDS011;16120;48.608;9.092;2024-01-25T00:04:51;110.73;;;8.37;;
29026;SDS011;16120;48.608;9.092;2024-01-25T00:08:46;110.68;;;8.20;;
29026;SDS011;16120;48.608;9.092;2024-01-25T00:12:43;111.23;;;8.43;;
29026;SDS011;16120;48.608;9.092;2024-01-25T00:16:40;110.97;;;8.40;;
29026;SDS011;16120;48.608;9.092;2024-01-25T00:20:35;111.17;;;8.30;;
29026;SDS011;16120;48.608;9.092;2024-01-25T00:24:30;111.50;;;8.40;;
29026;SDS011;16120;48.608;9.092;2024-01-25T00:28:27;110.97;;;8.03;;
29026;SDS011;16120;48.608;9.092;2024-01-25T00:32:22;111.87;;;8.70;;
29026;SDS011;16120;48.608;9.092;2024-01-25T00:36:17;111.37;;;8.40;;
29026;SDS011;16120;48.608;9.092;2024-01-25T00:40:13;111.60;;;8.40;;
29026;SDS011;16120;48.608;9.092;2024-01-25T00:44:10;111.97;;;8.50;;
29026;SDS011;16120;48.608;9.092;2024-01-25T00:48:06;111.17;;;8.47;;
29026;SDS011;16120;48.608;9.092;2024-01-25T00:52:02;111.07;;;8.67;;
29026;SDS011;16120;48.608;9.092;2024-01-25T00:55:58;110.93;;;8.20;;
29026;SDS011;16120;48.608;9.092;2024-01-25T00:59:55;111.40;;;8.70;;
29026;SDS011;16120;48.608;9.092;2024-01-25T01:03:50;111.30;;;8.37;;
29026;SDS011;16120;48.608;9.092;2024-01-25T01:07:46;111.60;;;8.70;;
29026;SDS011;16120;48.608;9.092;2024-01-25T01:11:41;111.57;;;8.33;;
29026;SDS011;16120;48.608;9.092;2024-01-25T01:15:38;112.53;;;8.65;;
29026;SDS011;16120;48.608;9.092;2024-01-25T01:19:33;111.70;;;8.57;;
29026;SDS011;16120;48.608;9.092;2024-01-25T01:23:28;110.70;;;8.17;;
29026;SDS011;16120;48.608;9.092;2024-01-25T01:27:23;110.97;;;8.60;;
29026;SDS011;16120;48.608;9.092;2024-01-25T01:31:20;111.47;;;8.50;;
29026;SDS011;16120;48.608;9.092;2024-01-25T01:35:15;110.87;;;8.53;;
29026;SDS011;16120;48.608;9.092;2024-01-25T01:39:10;111.53;;;8.37;;
29026;SDS011;16120;48.608;9.092;2024-01-25T01:43:05;111.53;;;8.70;;
29026;SDS011;16120;48.608;9.092;2024-01-25T01:47:02;111.67;;;8.90;;
29026;SDS011;16120;48.608;9.092;2024-01-25T01:50:57;111.87;;;8.00;;
29026;SDS011;16120;48.608;9.092;2024-01-25T01:54:53;112.00;;;8.30;;
29026;SDS011;16120;48.608;9.092;2024-01-25T01:58:48;111.70;;;8.57;;
29026;SDS011;16120;48.608;9.092;2024-01-25T02:02:45;111.60;;;8.43;;
29026;SDS011;16120;48.608;9.092;2024-01-25T02:06:40;112.00;;;8.60;;
29026;SDS011;16120;48.608;9.092;2024-01-25T02:10:37;111.23;;;8.47;;
29026;SDS011;16120;48.608;9.092;2024-01-25T02:14:32;111.13;;;8.43;;
29026;SDS011;16120;48.608;9.092;2024-01-25T02:18:29;111.90;;;9.10;;
29026;SDS011;16120;48.608;9.092;2024-01-25T02:22:26;111.30;;;8.70;;
29026;SDS011;16120;48.608;9.092;2024-01-25T02:26:21;111.57;;;8.47;;
29026;SDS011;16120;48.608;9.092;2024-01-25T02:30:16;111.67;;;8.37;;
29026;SDS011;16120;48.608;9.092;2024-01-25T02:34:12;112.32;;;8.98;;
29026;SDS011;16120;48.608;9.092;2024-01-25T02:38:08;111.07;;;8.23;;
29026;SDS011;16120;48.608;9.092;2024-01-25T02:42:03;111.50;;;8.67;;
29026;SDS011;16120;48.608;9.092;2024-01-25T02:45:59;111.80;;;8.63;;
29026;SDS011;16120;48.608;9.092;2024-01-25T02:49:54;112.13;;;8.53;;
29026;SDS011;16120;48.608;9.092;2024-01-25T02:53:50;111.70;;;8.77;;
29026;SDS011;16120;48.608;9.092;2024-01-25T02:57:46;111.50;;;8.43;;
29026;SDS011;16120;48.608;9.092;2024-01-25T03:01:41;111.50;;;8.73;;
29026;SDS011;16120;48.608;9.092;2024-01-25T03:05:36;111.57;;;8.67;;
29026;SDS011;16120;48.608;9.092;2024-01-25T03:09:33;112.07;;;8.67;;
29026;SDS011;16120;48.608;9.092;2024-01-25T03:13:28;110.77;;;8.07;;
29026;SDS011;16120;48.608;9.092;2024-01-25T03:17:23;111.87;;;8.97;;
29026;SDS011;16120;48.608;9.092;2024-01-25T03:21:18;112.50;;;8.30;;
29026;SDS011;16120;48.608;9.092;2024-01-25T03:25:15;111.25;;;8.30;;
29026;SDS011;16120;48.608;9.092;2024-01-25T03:29:10;112.60;;;8.60;;
29026;SDS011;16120;48.608;9.092;2024-01-25T03:33:05;111.23;;;8.37;;
29026;SDS011;16120;48.608;9.092;2024-01-25T03:37:00;111.87;;;8.57;;
29026;SDS011;16120;48.608;9.092;2024-01-25T03:40:57;112.07;;;8.67;;
29026;SDS011;16120;48.608;9.092;2024-01-25T03:44:52;111.23;;;8.43;;
29026;SDS011;16120;48.608;9.092;2024-01-25T03:48:47;111.73;;;8.47;;
29026;SDS011;16120;48.608;9.092;2024-01-25T03:52:42;111.47;;;8.20;;
29026;SDS011;16120;48.608;9.092;2024-01-25T03:56:39;112.07;;;8.87;;
29026;SDS011;16120;48.608;9.092;2024-01-25T04:00:34;111.53;;;8.43;;
29026;SDS011;16120;48.608;9.092;2024-01-25T04:04:29;111.17;;;8.37;;
29026;SDS011;16120;48.608;9.092;2024-01-25T04:08:24;111.50;;;8.90;;
29026;SDS011;16120;48.608;9.092;2024-01-25T04:12:21;111.00;;;8.50;;
29026;SDS011;16120;48.608;9.092;2024-01-25T04:16:16;111.70;;;8.40;;
29026;SDS011;16120;48.608;9.092;2024-01-25T04:20:11;111.35;;;8.00;;
29026;SDS011;16120;48.608;9.092;2024-01-25T04:24:07;111.07;;;8.50;;
29026;SDS011;16120;48.608;9.092;2024-01-25T04:28:03;111.13;;;8.48;;
29026;SDS011;16120;48.608;9.092;2024-01-25T04:31:58;111.30;;;8.17;;
29026;SDS011;16120;48.608;9.092;2024-01-25T04:35:54;111.67;;;8.47;;
29026;SDS011;16120;48.608;9.092;2024-01-25T04:39:49;111.60;;;8.30;;
29026;SDS011;16120;48.608;9.092;2024-01-25T04:43:45;111.87;;;8.47;;
29026;SDS011;16120;48.608;9.092;2024-01-25T04:47:41;111.17;;;8.40;;
29026;SDS011;16120;48.608;9.092;2024-01-25T04:51:36;111.53;;;8.40;;
29026;SDS011;16120;48.608;9.092;2024-01-25T04:55:31;111.40;;;8.83;;
29026;SDS011;16120;48.608;9.092;2024-01-25T04:59:27;112.47;;;8.53;;
29026;SDS011;16120;48.608;9.092;2024-01-25T05:03:23;111.27;;;8.10;;
29026;SDS011;16120;48.608;9.092;2024-01-25T05:07:18;111.30;;;8.20;;
29026;SDS011;16120;48.608;9.092;2024-01-25T05:11:13;111.47;;;8.07;;
29026;SDS011;16120;48.608;9.092;2024-01-25T05:15:10;111.67;;;8.03;;
29026;SDS011;16120;48.608;9.092;2024-01-25T05:19:05;112.00;;;8.20;;
29026;SDS011;16120;48.608;9.092;2024-01-25T05:23:00;110.73;;;8.23;;
29026;SDS011;16120;48.608;9.092;2024-01-25T05:26:56;111.33;;;7.87;;
29026;SDS011;16120;48.608;9.092;2024-01-25T05:30:52;111.30;;;8.10;;
29026;SDS011;16120;48.608;9.092;2024-01-25T05:34:47;111.50;;;8.17;;
29026;SDS011;16120;48.608;9.092;2024-01-25T05:38:43;110.93;;;8.00;;
29026;SDS011;16120;48.608;9.092;2024-01-25T05:42:38;110.90;;;7.83;;
29026;SDS011;16120;48.608;9.092;2024-01-25T05:46:34;111.60;;;8.23;;
29026;SDS011;16120;48.608;9.092;2024-01-25T05:50:30;111.27;;;7.67;;
29026;SDS011;16120;48.608;9.092;2024-01-25T05:54:25;111.20;;;8.10;;
29026;SDS011;16120;48.608;9.092;2024-01-25T05:58:20;111.87;;;8.13;;
29026;SDS011;16120;48.608;9.092;2024-01-25T06:02:16;111.70;;;7.93;;
29026;SDS011;16120;48.608;9.092;2024-01-25T06:06:12;111.50;;;8.10;;
29026;SDS011;16120;48.608;9.092;2024-01-25T06:10:07;112.45;;;8.02;;
29026;SDS011;16120;48.608;9.092;2024-01-25T06:14:04;111.80;;;7.80;;
29026;SDS011;16120;48.608;9.092;2024-01-25T06:18:00;112.60;;;8.63;;
29026;SDS011;16120;48.608;9.092;2024-01-25T06:21:55;112.53;;;8.50;;
29026;SDS011;16120;48.608;9.092;2024-01-25T06:25:50;112.17;;;8.13;;
29026;SDS011;16120;48.608;9.092;2024-01-25T06:29:46;112.80;;;8.20;;
29026;SDS011;16120;48.608;9.092;2024-01-25T06:33:42;112.87;;;8.27;;
29026;SDS011;16120;48.608;9.092;2024-01-25T06:37:37;113.20;;;8.57;;
29026;SDS011;16120;48.608;9.092;2024-01-25T06:41:33;113.17;;;8.60;;
29026;SDS011;16120;48.608;9.092;2024-01-25T06:45:28;113.37;;;8.67;;
29026;SDS011;16120;48.608;9.092;2024-01-25T06:49:24;112.50;;;8.37;;
29026;SDS011;16120;48.608;9.092;2024-01-25T06:53:20;114.07;;;8.40;;
29026;SDS011;16120;48.608;9.092;2024-01-25T06:57:15;113.60;;;8.23;;
29026;SDS011;16120;48.608;9.092;2024-01-25T07:01:10;112.77;;;8.17;;
29026;SDS011;16120;48.608;9.092;2024-01-25T07:05:07;113.17;;;8.50;;
29026;SDS011;16120;48.608;9.092;2024-01-25T07:09:02;113.17;;;8.57;;
29026;SDS011;16120;48.608;9.092;2024-01-25T07:12:58;113.40;;;8.37;;
29026;SDS011;16120;48.608;9.092;2024-01-25T07:16:53;113.77;;;8.47;;
29026;SDS011;16120;48.608;9.092;2024-01-25T07:20:49;112.70;;;7.97;;
29026;SDS011;16120;48.608;9.092;2024-01-25T07:24:45;114.37;;;8.87;;
29026;SDS011;16120;48.608;9.092;2024-01-25T07:28:40;113.57;;;8.17;;
29026;SDS011;16120;48.608;9.092;2024-01-25T07:32:35;114.00;;;8.67;;
29026;SDS011;16120;48.608;9.092;2024-01-25T07:36:32;113.17;;;8.40;;
29026;SDS011;16120;48.608;9.092;2024-01-25T07:40:27;113.47;;;8.60;;
29026;SDS011;16120;48.608;9.092;2024-01-25T07:44:22;113.17;;;8.03;;
29026;SDS011;16120;48.608;9.092;2024-01-25T07:48:17;113.87;;;8.37;;
29026;SDS011;16120;48.608;9.092;2024-01-25T07:52:14;113.90;;;8.50;;
29026;SDS011;16120;48.608;9.092;2024-01-25T07:56:09;113.90;;;8.50;;
29026;SDS011;16120;48.608;9.092;2024-01-25T08:00:05;113.50;;;8.70;;
29026;SDS011;16120;48.608;9.092;2024-01-25T08:04:00;114.57;;;8.27;;
29026;SDS011;16120;48.608;9.092;2024-01-25T08:07:57;113.17;;;8.47;;
29026;SDS011;16120;48.608;9.092;2024-01-25T08:11:52;115.17;;;8.50;;
29026;SDS011;16120;48.608;9.092;2024-01-25T08:15:48;114.30;;;8.70;;
29026;SDS011;16120;48.608;9.092;2024-01-25T08:19:43;113.80;;;8.23;;
29026;SDS011;16120;48.608;9.092;2024-01-25T08:23:40;113.20;;;8.27;;
29026;SDS011;16120;48.608;9.092;2024-01-25T08:27:35;113.23;;;8.50;;
29026;SDS011;16120;48.608;9.092;2024-01-25T08:31:30;113.90;;;8.40;;
29026;SDS011;16120;48.608;9.092;2024-01-25T08:35:25;113.47;;;8.33;;
29026;SDS011;16120;48.608;9.092;2024-01-25T08:39:22;113.07;;;8.43;;
29026;SDS011;16120;48.608;9.092;2024-01-25T08:43:17;112.80;;;8.10;;
29026;SDS011;16120;48.608;9.092;2024-01-25T08:47:12;112.47;;;8.67;;
29026;SDS011;16120;48.608;9.092;2024-01-25T08:51:07;112.93;;;8.20;;
29026;SDS011;16120;48.608;9.092;2024-01-25T08:55:04;113.13;;;7.93;;
29026;SDS011;16120;48.608;9.092;2024-01-25T08:58:59;112.67;;;7.90;;
29026;SDS011;16120;48.608;9.092;2024-01-25T09:02:55;112.80;;;8.23;;
29026;SDS011;16120;48.608;9.092;2024-01-25T09:06:50;112.97;;;8.67;;
29026;SDS011;16120;48.608;9.092;2024-01-25T09:10:46;112.97;;;8.00;;
29026;SDS011;16120;48.608;9.092;2024-01-25T09:14:42;112.47;;;8.33;;
29026;SDS011;16120;48.608;9.092;2024-01-25T09:18:37;112.20;;;8.23;;
29026;SDS011;16120;48.608;9.092;2024-01-25T09:22:32;112.53;;;8.60;;
29026;SDS011;16120;48.608;9.092;2024-01-25T09:26:29;111.67;;;8.27;;
29026;SDS011;16120;48.608;9.092;2024-01-25T09:30:24;112.17;;;8.37;;
29026;SDS011;16120;48.608;9.092;2024-01-25T09:34:19;111.47;;;8.10;;
29026;SDS011;16120;48.608;9.092;2024-01-25T09:38:14;112.50;;;8.80;;
29026;SDS011;16120;48.608;9.092;2024-01-25T09:42:11;111.97;;;8.40;;
29026;SDS011;16120;48.608;9.092;2024-01-25T09:46:06;110.63;;;8.60;;
29026;SDS011;16120;48.608;9.092;2024-01-25T09:50:02;110.23;;;8.20;;
29026;SDS011;16120;48.608;9.092;2024-01-25T09:53:57;110.80;;;8.27;;
29026;SDS011;16120;48.608;9.092;2024-01-25T09:57:54;109.40;;;8.07;;
29026;SDS011;16120;48.608;9.092;2024-01-25T10:01:49;108.07;;;8.00;;
29026;SDS011;16120;48.608;9.092;2024-01-25T10:05:44;108.80;;;8.37;;
29026;SDS011;16120;48.608;9.092;2024-01-25T10:09:40;108.77;;;8.40;;
29026;SDS011;16120;48.608;9.092;2024-01-25T10:13:41;108.63;;;8.97;;
29026;SDS011;16120;48.608;9.092;2024-01-25T10:17:36;108.50;;;7.90;;
29026;SDS011;16120;48.608;9.092;2024-01-25T10:21:31;107.70;;;9.20;;
29026;SDS011;16120;48.608;9.092;2024-01-25T10:25:26;107.73;;;8.03;;
29026;SDS011;16120;48.608;9.092;2024-01-25T10:29:23;108.57;;;8.50;;
29026;SDS011;16120;48.608;9.092;2024-01-25T10:33:20;107.97;;;8.20;;
29026;SDS011;16120;48.608;9.092;2024-01-25T10:37:15;108.47;;;8.73;;
29026;SDS011;16120;48.608;9.092;2024-01-25T10:41:11;106.57;;;8.30;;
29026;SDS011;16120;48.608;9.092;2024-01-25T10:45:10;107.93;;;9.37;;
29026;SDS011;16120;48.608;9.092;2024-01-25T10:49:05;106.87;;;9.20;;
29026;SDS011;16120;48.608;9.092;2024-01-25T10:53:00;106.57;;;8.27;;
29026;SDS011;16120;48.608;9.092;2024-01-25T10:56:55;106.50;;;9.10;;
29026;SDS011;16120;48.608;9.092;2024-01-25T11:00:55;106.20;;;8.57;;
29026;SDS011;16120;48.608;9.092;2024-01-25T11:04:52;106.17;;;8.90;;
29026;SDS011;16120;48.608;9.092;2024-01-25T11:08:48;105.97;;;8.33;;
29026;SDS011;16120;48.608;9.092;2024-01-25T11:12:47;105.37;;;8.70;;
29026;SDS011;16120;48.608;9.092;2024-01-25T11:16:44;111.17;;;17.53;;
29026;SDS011;16120;48.608;9.092;2024-01-25T11:20:39;105.30;;;9.47;;
29026;SDS011;16120;48.608;9.092;2024-01-25T11:24:36;105.27;;;9.30;;
29026;SDS011;16120;48.608;9.092;2024-01-25T11:28:32;105.90;;;9.80;;
29026;SDS011;16120;48.608;9.092;2024-01-25T11:32:28;112.60;;;23.57;;
29026;SDS011;16120;48.608;9.092;2024-01-25T11:36:24;105.90;;;8.60;;
29026;SDS011;16120;48.608;9.092;2024-01-25T11:40:19;106.40;;;8.70;;
29026;SDS011;16120;48.608;9.092;2024-01-25T11:44:14;107.27;;;8.40;;
29026;SDS011;16120;48.608;9.092;2024-01-25T11:48:11;106.57;;;8.70;;
29026;SDS011;16120;48.608;9.092;2024-01-25T11:52:06;106.27;;;8.37;;
29026;SDS011;16120;48.608;9.092;2024-01-25T11:56:02;104.67;;;8.10;;
29026;SDS011;16120;48.608;9.092;2024-01-25T11:59:57;105.37;;;9.00;;
29026;SDS011;16120;48.608;9.092;2024-01-25T12:03:54;105.10;;;8.37;;
29026;SDS011;16120;48.608;9.092;2024-01-25T12:07:49;105.50;;;8.80;;
29026;SDS011;16120;48.608;9.092;2024-01-25T12:11:48;105.70;;;11.00;;
29026;SDS011;16120;48.608;9.092;2024-01-25T12:15:44;104.60;;;8.10;;
29026;SDS011;16120;48.608;9.092;2024-01-25T12:19:42;104.77;;;8.57;;
29026;SDS011;16120;48.608;9.092;2024-01-25T12:23:37;105.03;;;8.70;;
29026;SDS011;16120;48.608;9.092;2024-01-25T12:27:32;104.47;;;8.50;;
29026;SDS011;16120;48.608;9.092;2024-01-25T12:31:28;105.20;;;9.13;;
29026;SDS011;16120;48.608;9.092;2024-01-25T12:35:24;104.90;;;8.67;;
29026;SDS011;16120;48.608;9.092;2024-01-25T12:39:19;104.57;;;8.30;;
29026;SDS011;16120;48.608;9.092;2024-01-25T12:43:15;103.37;;;7.73;;
29026;SDS011;16120;48.608;9.092;2024-01-25T12:47:10;104.47;;;7.87;;
29026;SDS011;16120;48.608;9.092;2024-01-25T12:51:06;105.07;;;8.37;;
29026;SDS011;16120;48.608;9.092;2024-01-25T12:55:02;103.97;;;7.87;;
29026;SDS011;16120;48.608;9.092;2024-01-25T12:58:57;104.47;;;8.03;;
29026;SDS011;16120;48.608;9.092;2024-01-25T13:02:52;103.70;;;7.97;;
29026;SDS011;16120;48.608;9.092;2024-01-25T13:06:49;103.77;;;7.70;;
29026;SDS011;16120;48.608;9.092;2024-01-25T13:10:44;104.67;;;8.27;;
29026;SDS011;16120;48.608;9.092;2024-01-25T13:14:39;103.50;;;7.60;;
29026;SDS011;16120;48.608;9.092;2024-01-25T13:18:34;103.77;;;8.40;;
29026;SDS011;16120;48.608;9.092;2024-01-25T13:22:31;104.23;;;8.00;;
29026;SDS011;16120;48.608;9.092;2024-01-25T13:26:26;104.67;;;8.03;;
29026;SDS011;16120;48.608;9.092;2024-01-25T13:30:21;104.77;;;7.70;;
29026;SDS011;16120;48.608;9.092;2024-01-25T13:34:16;104.37;;;8.00;;
29026;SDS011;16120;48.608;9.092;2024-01-25T13:38:13;104.87;;;8.07;;
29026;SDS011;16120;48.608;9.092;2024-01-25T13:42:08;103.97;;;7.67;;
29026;SDS011;16120;48.608;9.092;2024-01-25T13:46:03;105.17;;;8.20;;
29026;SDS011;16120;48.608;9.092;2024-01-25T13:49:58;104.97;;;7.63;;
29026;SDS011;16120;48.608;9.092;2024-01-25T13:53:56;105.67;;;8.20;;
29026;SDS011;16120;48.608;9.092;2024-01-25T13:57:51;106.20;;;8.60;;
29026;SDS011;16120;48.608;9.092;2024-01-25T14:01:46;108.13;;;14.07;;
29026;SDS011;16120;48.608;9.092;2024-01-25T14:05:41;105.07;;;8.40;;
29026;SDS011;16120;48.608;9.092;2024-01-25T14:09:38;105.87;;;8.40;;
29026;SDS011;16120;48.608;9.092;2024-01-25T14:13:33;105.47;;;8.80;;
29026;SDS011;16120;48.608;9.092;2024-01-25T14:17:28;105.97;;;8.77;;
29026;SDS011;16120;48.608;9.092;2024-01-25T14:21:23;106.07;;;9.10;;
29026;SDS011;16120;48.608;9.092;2024-01-25T14:25:20;106.87;;;9.20;;
29026;SDS011;16120;48.608;9.092;2024-01-25T14:29:15;107.27;;;8.73;;
29026;SDS011;16120;48.608;9.092;2024-01-25T14:33:10;107.67;;;8.77;;
29026;SDS011;16120;48.608;9.092;2024-01-25T14:37:05;106.77;;;9.10;;
29026;SDS011;16120;48.608;9.092;2024-01-25T14:41:02;107.30;;;9.00;;
29026;SDS011;16120;48.608;9.092;2024-01-25T14:44:57;106.90;;;8.37;;
29026;SDS011;16120;48.608;9.092;2024-01-25T14:48:52;107.67;;;8.40;;
29026;SDS011;16120;48.608;9.092;2024-01-25T14:52:48;107.40;;;8.07;;
29026;SDS011;16120;48.608;9.092;2024-01-25T14:56:44;106.97;;;8.37;;
29026;SDS011;16120;48.608;9.092;2024-01-25T15:00:39;107.63;;;8.27;;
29026;SDS011;16120;48.608;9.092;2024-01-25T15:04:35;108.07;;;9.00;;
29026;SDS011;16120;48.608;9.092;2024-01-25T15:08:30;109.70;;;9.20;;
29026;SDS011;16120;48.608;9.092;2024-01-25T15:12:26;107.80;;;8.57;;
29026;SDS011;16120;48.608;9.092;2024-01-25T15:16:21;108.37;;;8.67;;
29026;SDS011;16120;48.608;9.092;2024-01-25T15:20:17;108.47;;;9.57;;
29026;SDS011;16120;48.608;9.092;2024-01-25T15:24:12;108.23;;;8.50;;
29026;SDS011;16120;48.608;9.092;2024-01-25T15:28:08;107.77;;;9.30;;
29026;SDS011;16120;48.608;9.092;2024-01-25T15:32:04;108.40;;;8.40;;
29026;SDS011;16120;48.608;9.092;2024-01-25T15:35:59;107.37;;;8.50;;
29026;SDS011;16120;48.608;9.092;2024-01-25T15:39:54;109.77;;;9.00;;
29026;SDS011;16120;48.608;9.092;2024-01-25T15:43:51;108.63;;;9.00;;
29026;SDS011;16120;48.608;9.092;2024-01-25T15:47:46;109.07;;;8.93;;
29026;SDS011;16120;48.608;9.092;2024-01-25T15:51:41;108.30;;;8.50;;
29026;SDS011;16120;48.608;9.092;2024-01-25T15:55:36;108.77;;;8.40;;
29026;SDS011;16120;48.608;9.092;2024-01-25T15:59:33;108.70;;;8.70;;
29026;SDS011;16120;48.608;9.092;2024-01-25T16:03:28;109.37;;;9.00;;
29026;SDS011;16120;48.608;9.092;2024-01-25T16:07:23;108.27;;;8.73;;
29026;SDS011;16120;48.608;9.092;2024-01-25T16:11:18;108.10;;;8.50;;
29026;SDS011;16120;48.608;9.092;2024-01-25T16:15:15;107.67;;;9.00;;
29026;SDS011;16120;48.608;9.092;2024-01-25T16:19:10;109.13;;;8.67;;
29026;SDS011;16120;48.608;9.092;2024-01-25T16:23:05;108.00;;;8.52;;
29026;SDS011;16120;48.608;9.092;2024-01-25T16:27:01;107.90;;;8.60;;
29026;SDS011;16120;48.608;9.092;2024-01-25T16:30:57;108.30;;;8.10;;
29026;SDS011;16120;48.608;9.092;2024-01-25T16:34:52;108.40;;;8.70;;
29026;SDS011;16120;48.608;9.092;2024-01-25T16:38:47;108.50;;;8.37;;
29026;SDS011;16120;48.608;9.092;2024-01-25T16:42:43;109.32;;;8.88;;
29026;SDS011;16120;48.608;9.092;2024-01-25T16:46:39;109.23;;;8.70;;
29026;SDS011;16120;48.608;9.092;2024-01-25T16:50:34;108.73;;;8.40;;
29026;SDS011;16120;48.608;9.092;2024-01-25T16:54:29;108.87;;;8.70;;
29026;SDS011;16120;48.608;9.092;2024-01-25T16:58:25;108.87;;;8.57;;
29026;SDS011;16120;48.608;9.092;2024-01-25T17:02:21;108.60;;;8.80;;
29026;SDS011;16120;48.608;9.092;2024-01-25T17:06:16;108.60;;;8.37;;
29026;SDS011;16120;48.608;9.092;2024-01-25T17:10:12;109.03;;;8.60;;
29026;SDS011;16120;48.608;9.092;2024-01-25T17:14:07;108.87;;;8.50;;
29026;SDS011;16120;48.608;9.092;2024-01-25T17:18:04;109.37;;;8.77;;
29026;SDS011;16120;48.608;9.092;2024-01-25T17:21:59;109.20;;;8.93;;
29026;SDS011;16120;48.608;9.092;2024-01-25T17:25:54;108.90;;;8.67;;
29026;SDS011;16120;48.608;9.092;2024-01-25T17:29:49;108.67;;;8.70;;
29026;SDS011;16120;48.608;9.092;2024-01-25T17:33:46;108.73;;;8.50;;
29026;SDS011;16120;48.608;9.092;2024-01-25T17:37:41;109.27;;;8.27;;
29026;SDS011;16120;48.608;9.092;2024-01-25T17:41:36;109.07;;;8.60;;
29026;SDS011;16120;48.608;9.092;2024-01-25T17:45:31;109.23;;;8.47;;
29026;SDS011;16120;48.608;9.092;2024-01-25T17:49:28;109.13;;;8.13;;
29026;SDS011;16120;48.608;9.092;2024-01-25T17:53:23;109.87;;;9.20;;
29026;SDS011;16120;48.608;9.092;2024-01-25T17:57:18;109.57;;;9.70;;
29026;SDS011;16120;48.608;9.092;2024-01-25T18:01:13;109.40;;;8.33;;
29026;SDS011;16120;48.608;9.092;2024-01-25T18:05:10;109.00;;;8.83;;
29026;SDS011;16120;48.608;9.092;2024-01-25T18:09:05;109.07;;;8.80;;
29026;SDS011;16120;48.608;9.092;2024-01-25T18:13:00;109.77;;;8.93;;
29026;SDS011;16120;48.608;9.092;2024-01-25T18:16:55;109.23;;;8.17;;
29026;SDS011;16120;48.608;9.092;2024-01-25T18:20:52;109.30;;;8.43;;
29026;SDS011;16120;48.608;9.092;2024-01-25T18:24:47;109.47;;;8.60;;
29026;SDS011;16120;48.608;9.092;2024-01-25T18:28:42;109.60;;;8.60;;
29026;SDS011;16120;48.608;9.092;2024-01-25T18:32:37;109.33;;;8.10;;
29026;SDS011;16120;48.608;9.092;2024-01-25T18:36:34;109.40;;;8.37;;
29026;SDS011;16120;48.608;9.092;2024-01-25T18:40:29;109.07;;;8.60;;
29026;SDS011;16120;48.608;9.092;2024-01-25T18:44:24;110.17;;;8.80;;
29026;SDS011;16120;48.608;9.092;2024-01-25T18:48:19;109.80;;;8.77;;
29026;SDS011;16120;48.608;9.092;2024-01-25T18:52:16;109.53;;;8.77;;
29026;SDS011;16120;48.608;9.092;2024-01-25T18:56:11;110.23;;;8.43;;
29026;SDS011;16120;48.608;9.092;2024-01-25T19:00:07;109.93;;;8.50;;
29026;SDS011;16120;48.608;9.092;2024-01-25T19:04:03;109.80;;;7.93;;
29026;SDS011;16120;48.608;9.092;2024-01-25T19:07:59;110.07;;;8.70;;
29026;SDS011;16120;48.608;9.092;2024-01-25T19:11:55;110.67;;;8.87;;
29026;SDS011;16120;48.608;9.092;2024-01-25T19:15:50;109.73;;;8.70;;
29026;SDS011;16120;48.608;9.092;2024-01-25T19:19:45;110.80;;;8.73;;
29026;SDS011;16120;48.608;9.092;2024-01-25T19:23:42;110.10;;;8.27;;
29026;SDS011;16120;48.608;9.092;2024-01-25T19:27:37;109.97;;;8.20;;
29026;SDS011;16120;48.608;9.092;2024-01-25T19:31:32;109.97;;;8.10;;
29026;SDS011;16120;48.608;9.092;2024-01-25T19:35:27;110.47;;;8.30;;
29026;SDS011;16120;48.608;9.092;2024-01-25T19:39:24;109.90;;;7.90;;
29026;SDS011;16120;48.608;9.092;2024-01-25T19:43:19;110.40;;;8.13;;
29026;SDS011;16120;48.608;9.092;2024-01-25T19:47:14;110.40;;;8.27;;
29026;SDS011;16120;48.608;9.092;2024-01-25T19:51:09;110.27;;;7.90;;
29026;SDS011;16120;48.608;9.092;2024-01-25T19:55:06;109.90;;;7.80;;
29026;SDS011;16120;48.608;9.092;2024-01-25T19:59:02;109.87;;;7.90;;
29026;SDS011;16120;48.608;9.092;2024-01-25T20:02:57;109.60;;;7.53;;
29026;SDS011;16120;48.608;9.092;2024-01-25T20:06:52;109.73;;;7.50;;
29026;SDS011;16120;48.608;9.092;2024-01-25T20:10:49;109.87;;;7.47;;
29026;SDS011;16120;48.608;9.092;2024-01-25T20:14:45;110.10;;;8.10;;
29026;SDS011;16120;48.608;9.092;2024-01-25T20:18:40;109.90;;;7.57;;
29026;SDS011;16120;48.608;9.092;2024-01-25T20:22:35;110.10;;;7.80;;
29026;SDS011;16120;48.608;9.092;2024-01-25T20:26:32;109.97;;;7.80;;
29026;SDS011;16120;48.608;9.092;2024-01-25T20:30:27;110.33;;;8.43;;
29026;SDS011;16120;48.608;9.092;2024-01-25T20:34:22;111.47;;;8.57;;
29026;SDS011;16120;48.608;9.092;2024-01-25T20:38:17;110.10;;;8.23;;
29026;SDS011;16120;48.608;9.092;2024-01-25T20:42:14;110.67;;;7.80;;
29026;SDS011;16120;48.608;9.092;2024-01-25T20:46:09;110.23;;;8.20;;
29026;SDS011;16120;48.608;9.092;2024-01-25T20:50:04;110.20;;;7.87;;
29026;SDS011;16120;48.608;9.092;2024-01-25T20:54:00;110.77;;;8.03;;
29026;SDS011;16120;48.608;9.092;2024-01-25T20:57:56;110.20;;;7.87;;
29026;SDS011;16120;48.608;9.092;2024-01-25T21:01:51;110.47;;;7.70;;
29026;SDS011;16120;48.608;9.092;2024-01-25T21:05:47;110.17;;;7.90;;
29026;SDS011;16120;48.608;9.092;2024-01-25T21:09:42;110.47;;;7.97;;
29026;SDS011;16120;48.608;9.092;2024-01-25T21:13:39;110.77;;;7.97;;
29026;SDS011;16120;48.608;9.092;2024-01-25T21:17:35;110.60;;;8.20;;
29026;SDS011;16120;48.608;9.092;2024-01-25T21:21:30;110.37;;;8.27;;
29026;SDS011;16120;48.608;9.092;2024-01-25T21:25:25;110.57;;;7.80;;
29026;SDS011;16120;48.608;9.092;2024-01-25T21:29:21;110.40;;;7.87;;
29026;SDS011;16120;48.608;9.092;2024-01-25T21:33:17;110.87;;;7.90;;
29026;SDS011;16120;48.608;9.092;2024-01-25T21:37:12;110.47;;;7.67;;
29026;SDS011;16120;48.608;9.092;2024-01-25T21:41:07;110.50;;;7.67;;
29026;SDS011;16120;48.608;9.092;2024-01-25T21:45:04;110.87;;;7.83;;
29026;SDS011;16120;48.608;9.092;2024-01-25T21:49:00;110.40;;;8.03;;
29026;SDS011;16120;48.608;9.092;2024-01-25T21:52:55;110.87;;;7.87;;
29026;SDS011;16120;48.608;9.092;2024-01-25T21:56:50;110.47;;;7.83;;
29026;SDS011;16120;48.608;9.092;2024-01-25T22:00:46;110.40;;;7.87;;
29026;SDS011;16120;48.608;9.092;2024-01-25T22:04:42;110.77;;;8.00;;
29026;SDS011;16120;48.608;9.092;2024-01-25T22:08:37;110.73;;;7.93;;
29026;SDS011;16120;48.608;9.092;2024-01-25T22:12:32;110.50;;;8.10;;
29026;SDS011;16120;48.608;9.092;2024-01-25T22:16:29;110.50;;;7.77;;
29026;SDS011;16120;48.608;9.092;2024-01-25T22:20:25;110.50;;;8.00;;
29026;SDS011;16120;48.608;9.092;2024-01-25T22:24:20;110.87;;;8.47;;
29026;SDS011;16120;48.608;9.092;2024-01-25T22:28:15;111.60;;;8.03;;
29026;SDS011;16120;48.608;9.092;2024-01-25T22:32:12;110.43;;;7.80;;
29026;SDS011;16120;48.608;9.092;2024-01-25T22:36:07;110.77;;;8.00;;
29026;SDS011;16120;48.608;9.092;2024-01-25T22:40:03;110.43;;;7.87;;
29026;SDS011;16120;48.608;9.092;2024-01-25T22:43:58;110.40;;;7.93;;
29026;SDS011;16120;48.608;9.092;2024-01-25T22:47:54;110.73;;;8.10;;
29026;SDS011;16120;48.608;9.092;2024-01-25T22:51:49;110.87;;;8.10;;
29026;SDS011;16120;48.608;9.092;2024-01-25T22:55:45;110.90;;;8.20;;